Andreas Schmidt

Scout - Eintracht Frankfurt
20 Jan 2028
Donnerstag
Verarbeitung

Persönlichkeit

Anpassungsfähigkeit (14) Ehrgeiz (17) Kontroverse (12) Loyalität (14) Druck (10) Professionalität (6) Fairness (9) Temperament (17)

Profil

Trainerstil Demokratisch
Lizenz Kontinentale Pro
Entschlossenheit 14
Menschenführung 9
Motivation 10
Disziplin 15
Arbeitszufriedenheit
69%
Ermüdung
0%
Rolle Scout
Gehalt 38.0K p/W
Vertrag 14.03.2028

Leistung

Verhalten Gut
Trainingseffektivität
31%
Spielerentwicklung
65%
Verletzungsprävention
40%
Taktische Umsetzung
70%

Letzte Ereignisse

Nahm an einer Scouting-Besprechung teil jetzt
Empfahl ein Transferziel jetzt
Empfahl ein Transferziel jetzt
Empfahl ein Transferziel jetzt
Empfahl ein Transferziel jetzt
Vertragsverhandlung begonnen jetzt
Nimmt an Fortbildung teil jetzt
Vertragsverhandlung begonnen jetzt

Aktuell beobachtet

215
Spieler Verein Status Fähigkeit Vertrauen Beobachtet Zuletzt beobachtet Letzte Stimme
William Gomes Porto Aktiv 151 / 150 40% 2 19.01.2028 -
Kutlwano Letlhaku Ajax Cape Town Aktiv 122 / 121 40% 1 19.01.2028 -
Lennart Karl Hamburger SV Aktiv 139 / 152 40% 1 19.01.2028 -
Dmitry Pestryakov Dinamo Moscow Aktiv 118 / 128 40% 4 10.01.2028 -
Shea Lacey Wolverhampton Aktiv 132 / 139 40% 1 10.01.2028 -
Siyabonga Mabena Chippa United Aktiv 121 / 123 40% 1 10.01.2028 -
Rodrygo Real Madrid Verloren 164 / 164 67% 1 01.01.2028 -
Jan Virgili Club Brugge Aktiv 138 / 143 40% 3 30.12.2027 -
Caleb Yirenkyi Coventry City Aktiv 142 / 143 40% 3 30.12.2027 -
Ryan McAidoo Gillingham Aktiv 121 / 132 40% 2 30.12.2027 -
David Valencia Alianza Petrolera Aktiv 128 / 125 40% 5 29.12.2027 -
Fodé Sylla Sion Aktiv 120 / 124 40% 3 29.12.2027 -
Jofre Torrents Ajax Aktiv 131 / 134 40% 2 28.12.2027 -
Trey Nyoni Rotherham United Aktiv 137 / 147 40% 3 28.12.2027 -
Eduardo Felicíssimo Sporting CP Aktiv 121 / 124 40% 1 28.12.2027 -
Luca Williams-Barnett Tranmere Rovers Aktiv 121 / 128 40% 2 27.12.2027 -
Nikolaus Wurmbrand Charleroi Aktiv 125 / 127 40% 2 27.12.2027 -
Olivier Mambwa Young Boys Aktiv 110 / 121 40% 6 25.12.2027 -
Noahkai Banks Hamburger SV Aktiv 138 / 144 40% 4 25.12.2027 -
Myles Lewis-Skelly Birmingham Aktiv 154 / 158 40% 5 24.12.2027 -
Marc Bernal Real Sociedad Aktiv 148 / 159 40% 6 24.12.2027 -
Axel Kayombo Sturm Graz Aktiv 113 / 116 40% 1 24.12.2027 -
Kauã Moraes Cruzeiro Aktiv 128 / 131 40% 5 22.12.2027 -
Ayden Heaven Luton Town Aktiv 147 / 155 40% 6 22.12.2027 -
Giovanni Leoni Bradford City Aktiv 140 / 149 40% 3 22.12.2027 -
Mateo Silvetti Los Angeles Football Club Aktiv 128 / 122 40% 1 22.12.2027 -
Kevin Vazquez Cruz Azul Aktiv 138 / 132 40% 4 21.12.2027 -
Héctor Fort Real Sociedad Aktiv 141 / 144 40% 5 20.12.2027 -
Esquerdinha Shrewsbury Town Aktiv 120 / 132 40% 3 19.12.2027 -
Bahia Criciuma Aktiv 115 / 118 40% 3 16.12.2027 -
Archie Gray Derby County Aktiv 152 / 160 40% 4 13.12.2027 -
Ronan Kpakio Cardiff City Aktiv 122 / 125 40% 2 13.12.2027 -
Josh Nichols Tranmere Rovers Aktiv 121 / 125 40% 5 11.12.2027 -
Izan Merino Málaga Aktiv 130 / 135 40% 3 09.12.2027 -
Sebastián Ramírez Jaguares Aktiv 109 / 115 40% 4 09.12.2027 -
Leon Grgić Sturm Graz Aktiv 130 / 134 40% 1 09.12.2027 -
Clement Bischoff Red Bull Salzburg Aktiv 130 / 136 40% 1 09.12.2027 -
Matteo Pérez Vinlöf Dinamo Zagreb Aktiv 126 / 125 40% 2 03.12.2027 -
Kauã Elias Anderlecht Aktiv 139 / 137 40% 1 03.12.2027 -
Alejandro Almaraz Nueva Chicago Aktiv 109 / 118 40% 1 01.12.2027 -
Julien Duranville Olympique Lyonnais Aktiv 132 / 142 40% 2 30.11.2027 -
Josh King Chelsea Aktiv 143 / 149 40% 1 30.11.2027 -
Dani Díaz Real Sociedad Aktiv 119 / 127 40% 1 28.11.2027 -
Ethan Nwaneri Arsenal Aktiv 151 / 157 40% 1 28.11.2027 -
Jorrel Hato Chelsea Aktiv 153 / 160 40% 2 23.11.2027 -
Jaydee Canvot AJ Auxerre Aktiv 141 / 145 40% 1 23.11.2027 -
Mads Bomholt Stabaek Aktiv 110 / 117 40% 2 19.11.2027 -
Nathan De Cat Hamburger SV Aktiv 131 / 135 40% 1 19.11.2027 -
Luis Otávio Colorado Rapids Aktiv 111 / 123 40% 3 18.11.2027 -
Seb Ferdinand Chesterfield Aktiv 115 / 122 40% 1 18.11.2027 -
Gilberto Mora Atlético Madrid Aktiv 136 / 149 40% 1 18.11.2027 -
Juan Morán Godoy Cruz Aktiv 107 / 112 40% 1 06.11.2027 -
Christos Mouzakitis Hull City Aktiv 137 / 140 40% 1 06.11.2027 -
Agustín Obregón River Plate Aktiv 113 / 118 40% 1 03.11.2027 -
Jayden Addai Como Aktiv 135 / 136 40% 1 05.07.2027 -
Endrick Real Madrid Aktiv 151 / 159 40% 1 05.07.2027 -
Hiroki Ito Bayern Munich Aktiv 150 / 155 93% 1 21.06.2027 Befürworten
Jan Bürger Gillingham Aktiv 113 / 120 40% 1 21.06.2027 -
Diogo Costa Manchester City Verhandlung 160 / 160 69% 1 01.06.2027 Befürworten
Lucas Chevalier Eintracht Frankfurt Verhandlung 153 / 155 70% 1 01.06.2027 Befürworten
Evan N'Dicka Eintracht Frankfurt Aktiv 155 / 155 66% 1 01.06.2027 Befürworten
Ricardo Pepi Chelsea Verhandlung 142 / 145 69% 1 01.06.2027 Befürworten
Moussa Diaby Bayer Leverkusen Aktiv 149 / 152 40% 8 29.05.2027 -
Yan Diomandé Real Madrid Aktiv 154 / 158 40% 3 29.05.2027 -
Jonathan Dubasin Osasuna Aktiv 145 / 139 40% 2 29.05.2027 -
Dušan Vlahović Juventus Aktiv 161 / 160 40% 6 29.05.2027 -
Abel Ruiz Girona Aktiv 139 / 139 40% 7 29.05.2027 -
Kenan Yıldız Juventus Aktiv 162 / 160 40% 4 29.05.2027 -
Gavi Barcelona Aktiv 159 / 157 40% 10 28.05.2027 -
Christoph Baumgartner RB Leipzig Aktiv 152 / 145 40% 5 28.05.2027 -
Andrés Martín Racing Santander Aktiv 138 / 140 40% 7 26.05.2027 -
Giacomo Raspadori Atalanta Aktiv 147 / 140 40% 6 26.05.2027 -
Morgan Whittaker Middlesbrough Aktiv 132 / 127 40% 7 26.05.2027 -
Tani Oluwaseyi Villarreal Aktiv 144 / 146 40% 4 26.05.2027 -
Richard Koné Queens Park Rangers Aktiv 125 / 119 40% 1 26.05.2027 -
Matthijs de Ligt Manchester United Aktiv 159 / 157 40% 1 26.05.2027 -
Omar El Hilali Espanyol Aktiv 149 / 149 40% 1 26.05.2027 -
Borna Knezović Casarano Aktiv 104 / 104 40% 1 25.05.2027 -
Ozziel Herrera Tigres Aktiv 127 / 118 40% 4 22.05.2027 -
Mees Rijks Bristol Rovers Aktiv 111 / 117 40% 3 21.05.2027 -
Tommy Conway Middlesbrough Aktiv 129 / 132 40% 1 21.05.2027 -
Nicolas Jackson Aston Villa Aktiv 150 / 149 40% 3 20.05.2027 -
Hugo Duro Valencia Aktiv 142 / 145 40% 3 19.05.2027 -
Troy Parrott Betis Aktiv 139 / 143 40% 1 19.05.2027 -
José Ángel Carmona Sevilla Aktiv 148 / 146 40% 6 18.05.2027 -
Miguel Gutiérrez Bayer Leverkusen Aktiv 154 / 151 40% 5 18.05.2027 -
Thiago Brentford Aktiv 148 / 146 40% 2 18.05.2027 -
Yehor Yarmoliuk Brentford Aktiv 147 / 152 40% 1 18.05.2027 -
Urko Izeta Cádiz Aktiv 133 / 132 40% 1 18.05.2027 -
Georges Mikautadze Villarreal Aktiv 153 / 154 40% 6 17.05.2027 -
Bojan Radulović Huddersfield Town Aktiv 114 / 118 40% 1 17.05.2027 -
Tom Cannon Sheffield United Aktiv 131 / 127 40% 4 16.05.2027 -
García Pascual Cádiz Aktiv 122 / 127 40% 1 16.05.2027 -
Gonçalo Ramos AC Milan Aktiv 158 / 158 40% 2 15.05.2027 -
Diego López Rayo Vallecano Aktiv 139 / 144 40% 1 15.05.2027 -
Malik Tillman Bayer Leverkusen Aktiv 154 / 152 40% 4 13.05.2027 Beobachten
Ez Abde Girona Aktiv 152 / 152 40% 7 13.05.2027 -
Tyrhys Dolan Espanyol Aktiv 139 / 144 40% 2 13.05.2027 -
Dango Ouattara Brentford Aktiv 149 / 147 40% 4 11.05.2027 -
Germán Valera Elche Aktiv 138 / 133 40% 4 08.05.2027 -
Ferran Torres Paris Saint-Germain Aktiv 168 / 161 40% 3 08.05.2027 -
Hector Ramirez Newcastle United Aktiv 154 / 148 40% 2 07.05.2027 -
Nico González Newcastle United Aktiv 161 / 158 40% 3 07.05.2027 -
Amadou Onana Aston Villa Aktiv 156 / 154 40% 2 07.05.2027 -
Dom Ballard Leyton Orient Aktiv 119 / 125 40% 1 06.05.2027 -
João Pedro Chelsea Aktiv 156 / 156 40% 6 03.05.2027 -
Kang-In Lee Atlético Madrid Aktiv 162 / 155 40% 3 03.05.2027 -
Luis Vázquez Birmingham Aktiv 129 / 124 40% 6 03.05.2027 -
Amine Adli Bournemouth Aktiv 145 / 145 40% 1 02.05.2027 -
Jacob Ramsey Newcastle United Aktiv 154 / 150 40% 1 29.04.2027 -
Pablo Torre Mallorca Aktiv 145 / 142 40% 4 28.04.2027 -
Matheus Cunha Manchester United Aktiv 160 / 156 40% 8 28.04.2027 -
Kai Havertz Arsenal Aktiv 162 / 166 40% 4 25.04.2027 -
Mandla Mahlangu Ajax Cape Town Aktiv 107 / 99 40% 3 24.04.2027 -
Óscar Aranda VfL Wolfsburg Aktiv 135 / 130 40% 1 24.04.2027 -
Joaquín Panichelli Le Havre AC Aktiv 144 / 142 40% 1 23.04.2027 -
Yousef Salech Cardiff City Aktiv 127 / 127 40% 3 20.04.2027 -
Ben Ahmed Kohili Paradou Aktiv 103 / 102 40% 2 19.04.2027 -
Will Lankshear Middlesbrough Aktiv 125 / 132 40% 2 19.04.2027 -
Senny Mayulu Paris Saint-Germain Aktiv 146 / 155 40% 1 19.04.2027 -
Leo Castledine Middlesbrough Aktiv 126 / 126 40% 1 19.04.2027 -
Xavi Simons Tottenham Aktiv 158 / 156 40% 2 17.04.2027 -
Maroan Sannadi Athletic Bilbao Aktiv 137 / 141 40% 1 16.04.2027 -
Ilyas Ansah Hull City Aktiv 131 / 136 40% 2 09.04.2027 -
Couhaib Driouech Celta Aktiv 136 / 135 40% 2 08.04.2027 -
Takefusa Kubo Real Sociedad Aktiv 159 / 158 40% 1 08.04.2027 -
Mikkel Damsgaard Brentford Aktiv 146 / 148 40% 2 05.04.2027 -
Cody Gakpo Liverpool Aktiv 158 / 153 40% 3 04.04.2027 -
Adrián Niño Málaga Aktiv 124 / 128 40% 1 02.04.2027 -
Carlos Vicente Birmingham Aktiv 143 / 147 40% 3 01.04.2027 -
Robert Mizo Ashanti Gold Aktiv 102 / 95 40% 2 01.04.2027 -
Lorent Tolaj Plymouth Argyle Aktiv 122 / 121 40% 1 29.03.2027 -
Justin Njinmah Werder Bremen Aktiv 133 / 133 40% 1 27.03.2027 -
Gaspar Gijón Aktiv 139 / 136 40% 1 26.03.2027 -
Aune Heggebø West Bromwich Albion Aktiv 128 / 132 40% 1 21.03.2027 -
Oihan Sancet Athletic Bilbao Aktiv 162 / 154 40% 3 20.03.2027 -
Curtis Jones Inter Aktiv 159 / 153 40% 1 20.03.2027 -
Bryan Mbeumo Manchester United Aktiv 158 / 162 40% 1 15.03.2027 -
Bradley Barcola Liverpool Aktiv 165 / 157 40% 1 13.03.2027 -
Adam Wharton Crystal Palace Aktiv 153 / 148 40% 1 12.03.2027 -
Alejandro Balde Barcelona Aktiv 157 / 159 40% 1 12.03.2027 -
Sven Botman Newcastle United Aktiv 156 / 158 40% 1 09.03.2027 -
Mats Wieffer Brighton Aktiv 151 / 145 40% 1 09.03.2027 -
Tino Livramento Newcastle United Aktiv 153 / 158 40% 1 09.03.2027 -
Pol Lozano Espanyol Aktiv 140 / 139 40% 1 08.03.2027 -
Óscar Mingueza Crystal Palace Aktiv 149 / 149 40% 1 08.03.2027 -
Wesley Fofana Chelsea Aktiv 165 / 167 40% 3 06.03.2027 -
Levi Colwill Chelsea Aktiv 157 / 158 40% 1 06.03.2027 -
Miloš Kerkez Liverpool Aktiv 157 / 163 40% 1 06.03.2027 -
Willian Pacho Paris Saint-Germain Aktiv 166 / 160 40% 2 05.03.2027 -
Loïc Badé Bayer Leverkusen Aktiv 157 / 155 40% 1 05.03.2027 -
Erick Sánchez OGC Nice Aktiv 140 / 141 40% 1 03.03.2027 -
Fran García Betis Aktiv 153 / 145 40% 1 03.03.2027 -
Anthony Gordon Barcelona Aktiv 165 / 161 40% 1 02.03.2027 -
Matt O'Riley Brighton Aktiv 146 / 138 40% 1 02.03.2027 -
Francisco Conceição Juventus Aktiv 158 / 155 40% 1 02.03.2027 -
Mateus Mané Manchester United Aktiv 133 / 137 40% 1 02.03.2027 -
Hugo Álvarez Celta Aktiv 144 / 144 40% 3 26.02.2027 -
Dominik Szoboszlai Liverpool Aktiv 166 / 161 40% 1 25.02.2027 -
Jeremie Frimpong Liverpool Aktiv 158 / 162 40% 2 24.02.2027 -
Flavien-Enzo Boyomo Osasuna Aktiv 149 / 153 40% 1 24.02.2027 -
Giannis Konstantelias Borussia Dortmund Aktiv 141 / 148 40% 1 21.02.2027 -
Ayoub Oufkir AZ Aktiv 128 / 137 40% 1 20.02.2027 -
Assane Diao Lazio Aktiv 145 / 144 40% 1 20.02.2027 -
Marc Guéhi Manchester City Aktiv 165 / 168 40% 2 15.02.2027 -
Johnny Cardoso Atlético Madrid Aktiv 156 / 151 40% 3 15.02.2027 -
Javi Rodríguez Celta Aktiv 151 / 147 40% 1 15.02.2027 -
Rico Lewis Manchester City Aktiv 149 / 158 40% 1 13.02.2027 -
Álex Baena Atlético Madrid Aktiv 161 / 166 40% 1 11.02.2027 -
Ryan Sessegnon Fulham Aktiv 146 / 148 40% 1 08.02.2027 -
Yeremy Pino Crystal Palace Aktiv 148 / 145 40% 1 05.02.2027 -
Borja Sainz Fiorentina Aktiv 148 / 143 40% 1 04.02.2027 -
João Neves Paris Saint-Germain Aktiv 168 / 161 40% 1 04.02.2027 -
Philipp Treu SC Freiburg Aktiv 138 / 141 40% 1 04.02.2027 -
Ryan Gravenberch Liverpool Aktiv 160 / 157 40% 1 03.02.2027 -
Albert Sambi Lokonga Hamburger SV Aktiv 142 / 134 40% 1 03.02.2027 -
Pierre Kalulu Juventus Aktiv 158 / 157 40% 1 01.02.2027 -
Daniil Khudyakov Sturm Graz Aktiv 121 / 119 40% 3 31.12.2026 -
Niklas Steffen Thun Aktiv 117 / 112 40% 2 31.12.2026 -
Erick Reyes Toluca Aktiv 137 / 142 40% 4 27.12.2026 -
Robin Roefs Sunderland Aktiv 143 / 146 40% 1 27.12.2026 -
Cezary Miszta Rio Ave Aktiv 129 / 130 40% 1 26.12.2026 -
Niklas Hedl Zurich Aktiv 126 / 120 40% 3 25.12.2026 -
Michael Cooper Sheffield United Aktiv 128 / 123 40% 3 25.12.2026 -
Pascal Loretz Luzern Aktiv 127 / 128 40% 3 24.12.2026 -
Ben Voll St. Pauli Aktiv 116 / 119 40% 2 24.12.2026 -
Radek Vítek Middlesbrough Aktiv 131 / 130 40% 6 21.12.2026 -
Lukas Gütlbauer Wolfsberger AC Aktiv 114 / 111 40% 6 21.12.2026 -
Julen Agirrezabala Racing Santander Aktiv 147 / 137 40% 5 21.12.2026 -
Matěj Kovář PSV Aktiv 138 / 136 40% 1 19.12.2026 -
Justin Hammel Grasshopper Aktiv 124 / 122 40% 2 16.12.2026 Mehr Infos nötig
Igor Nikić Mirandés Aktiv 117 / 112 40% 1 13.12.2026 -
Beau Reus Waasland-Beveren Aktiv 127 / 132 40% 1 10.12.2026 -
Guilherme Fernandes Córdoba Aktiv 128 / 134 40% 1 10.12.2026 -
Jonmi Magunagoitia Eibar Aktiv 124 / 126 40% 3 08.12.2026 -
Lukas Jensen Millwall Aktiv 119 / 123 40% 1 08.12.2026 -
Stefan Drljača VfB Stuttgart Aktiv 120 / 122 40% 1 05.12.2026 -
Gianluigi Donnarumma Manchester City Aktiv 171 / 176 40% 2 03.12.2026 -
Murphy Cooper Plymouth Argyle Aktiv 110 / 116 40% 2 01.12.2026 -
Marius Wolf FC Augsburg Aktiv 138 / 138 30% 1 / 1m 18.11.2026 -
Joan García Barcelona Aktiv 161 / 167 40% 2 17.11.2026 -
Gaëtan Poussin Red Star Aktiv 123 / 120 40% 1 07.11.2026 -
Grégoire Coudert Burnley Aktiv 126 / 130 40% 2 03.11.2026 -
Hugo Souza Corinthians Aktiv 139 / 131 40% 1 03.11.2026 -
Luis Ingolotti Atlético Tucumán Aktiv 123 / 123 40% 1 02.11.2026 -
George Wickens Lincoln City Aktiv 112 / 113 40% 1 30.10.2026 -
Bradley Mabunda SuperSport United Aktiv 108 / 111 40% 1 28.10.2026 -
Mads Hermansen West Ham United Aktiv 136 / 130 40% 1 28.10.2026 -
Caoimhin Kelleher Brentford Aktiv 147 / 152 40% 1 26.10.2026 -
Unai Marrero Real Sociedad Aktiv 128 / 122 40% 1 25.10.2026 -
Senne Lammens Manchester United Aktiv 145 / 148 40% 4 18.10.2026 -
Roman Celentano FC Cincinnati Aktiv 119 / 116 40% 1 16.10.2026 -
Felipe Parra Envigado Aktiv 122 / 117 40% 2 13.10.2026 -
Declan Rice Arsenal Aktiv 183 / 178 40% 1 04.08.2026 -
Federico Valverde Real Madrid Aktiv 177 / 172 40% 1 04.08.2026 -